sensor_id;sensor_type;location;lat;lon;timestamp;pressure;altitude;pressure_sealevel;temperature;humidity
13027;BME280;6580;42.680;23.324;2023-07-22T00:00:42;95134.34;;;26.36;58.01
13027;BME280;6580;42.680;23.324;2023-07-22T00:03:28;95134.88;;;26.60;56.94
13027;BME280;6580;42.680;23.324;2023-07-22T00:06:13;95139.03;;;26.41;57.66
13027;BME280;6580;42.680;23.324;2023-07-22T00:09:00;95145.84;;;26.38;58.53
13027;BME280;6580;42.680;23.324;2023-07-22T00:11:49;95146.97;;;26.42;58.87
13027;BME280;6580;42.680;23.324;2023-07-22T00:14:38;95148.13;;;26.46;58.67
13027;BME280;6580;42.680;23.324;2023-07-22T00:17:23;95157.41;;;26.45;59.23
13027;BME280;6580;42.680;23.324;2023-07-22T00:20:09;95155.81;;;26.28;59.46
13027;BME280;6580;42.680;23.324;2023-07-22T00:22:55;95147.41;;;26.34;58.98
13027;BME280;6580;42.680;23.324;2023-07-22T00:25:42;95157.28;;;26.35;59.45
13027;BME280;6580;42.680;23.324;2023-07-22T00:28:28;95156.56;;;26.23;61.35
13027;BME280;6580;42.680;23.324;2023-07-22T00:31:13;95156.31;;;26.25;61.07
13027;BME280;6580;42.680;23.324;2023-07-22T00:33:59;95154.53;;;26.14;61.29
13027;BME280;6580;42.680;23.324;2023-07-22T00:36:44;95157.09;;;26.20;61.84
13027;BME280;6580;42.680;23.324;2023-07-22T00:39:31;95158.28;;;26.29;61.40
13027;BME280;6580;42.680;23.324;2023-07-22T00:42:18;95157.84;;;26.16;62.12
13027;BME280;6580;42.680;23.324;2023-07-22T00:45:05;95162.41;;;26.10;63.33
13027;BME280;6580;42.680;23.324;2023-07-22T00:47:51;95160.00;;;25.92;63.33
13027;BME280;6580;42.680;23.324;2023-07-22T00:50:38;95163.31;;;26.16;62.86
13027;BME280;6580;42.680;23.324;2023-07-22T00:53:23;95165.16;;;26.10;63.86
13027;BME280;6580;42.680;23.324;2023-07-22T00:56:09;95182.63;;;26.09;64.33
13027;BME280;6580;42.680;23.324;2023-07-22T00:58:56;95177.28;;;25.98;65.26
13027;BME280;6580;42.680;23.324;2023-07-22T01:01:42;95169.44;;;26.01;64.72
13027;BME280;6580;42.680;23.324;2023-07-22T01:04:27;95166.16;;;26.04;63.61
13027;BME280;6580;42.680;23.324;2023-07-22T01:07:13;95166.81;;;25.73;65.68
13027;BME280;6580;42.680;23.324;2023-07-22T01:09:58;95154.25;;;25.89;66.15
13027;BME280;6580;42.680;23.324;2023-07-22T01:12:44;95151.13;;;25.80;66.95
13027;BME280;6580;42.680;23.324;2023-07-22T01:15:31;95140.22;;;25.80;67.72
13027;BME280;6580;42.680;23.324;2023-07-22T01:18:17;95148.47;;;25.69;68.11
13027;BME280;6580;42.680;23.324;2023-07-22T01:21:03;95155.78;;;25.64;68.47
13027;BME280;6580;42.680;23.324;2023-07-22T01:23:52;95152.91;;;25.75;68.11
13027;BME280;6580;42.680;23.324;2023-07-22T01:26:38;95161.94;;;25.75;68.57
13027;BME280;6580;42.680;23.324;2023-07-22T01:29:23;95151.97;;;25.65;69.74
13027;BME280;6580;42.680;23.324;2023-07-22T01:32:09;95142.25;;;25.52;70.40
13027;BME280;6580;42.680;23.324;2023-07-22T01:34:54;95142.72;;;25.66;69.81
13027;BME280;6580;42.680;23.324;2023-07-22T01:37:40;95137.75;;;25.63;70.12
13027;BME280;6580;42.680;23.324;2023-07-22T01:40:26;95139.97;;;25.66;69.76
13027;BME280;6580;42.680;23.324;2023-07-22T01:43:13;95142.34;;;25.41;71.33
13027;BME280;6580;42.680;23.324;2023-07-22T01:45:59;95144.75;;;25.37;71.98
13027;BME280;6580;42.680;23.324;2023-07-22T01:48:45;95141.44;;;25.35;72.67
13027;BME280;6580;42.680;23.324;2023-07-22T01:51:31;95130.44;;;25.47;72.03
13027;BME280;6580;42.680;23.324;2023-07-22T01:54:16;95129.56;;;25.25;72.92
13027;BME280;6580;42.680;23.324;2023-07-22T01:57:03;95129.59;;;25.46;71.30
13027;BME280;6580;42.680;23.324;2023-07-22T01:59:48;95128.78;;;25.46;70.86
13027;BME280;6580;42.680;23.324;2023-07-22T02:02:34;95125.53;;;25.49;71.61
13027;BME280;6580;42.680;23.324;2023-07-22T02:05:19;95123.81;;;25.43;72.93
13027;BME280;6580;42.680;23.324;2023-07-22T02:08:05;95129.69;;;25.51;72.69
13027;BME280;6580;42.680;23.324;2023-07-22T02:10:50;95124.97;;;25.47;72.75
13027;BME280;6580;42.680;23.324;2023-07-22T02:13:37;95138.44;;;25.53;72.36
13027;BME280;6580;42.680;23.324;2023-07-22T02:16:22;95123.38;;;25.51;72.93
13027;BME280;6580;42.680;23.324;2023-07-22T02:19:08;95129.88;;;25.28;73.64
13027;BME280;6580;42.680;23.324;2023-07-22T02:21:53;95130.19;;;25.32;74.03
13027;BME280;6580;42.680;23.324;2023-07-22T02:24:39;95133.00;;;25.37;73.88
13027;BME280;6580;42.680;23.324;2023-07-22T02:27:24;95139.88;;;25.23;75.59
13027;BME280;6580;42.680;23.324;2023-07-22T02:30:11;95141.94;;;25.32;74.82
13027;BME280;6580;42.680;23.324;2023-07-22T02:32:57;95146.84;;;25.52;73.26
13027;BME280;6580;42.680;23.324;2023-07-22T02:35:42;95156.78;;;25.58;73.79
13027;BME280;6580;42.680;23.324;2023-07-22T02:38:27;95149.84;;;25.34;75.80
13027;BME280;6580;42.680;23.324;2023-07-22T02:41:13;95149.28;;;25.32;76.97
13027;BME280;6580;42.680;23.324;2023-07-22T02:43:58;95149.38;;;25.37;76.34
13027;BME280;6580;42.680;23.324;2023-07-22T02:46:45;95145.25;;;25.34;76.45
13027;BME280;6580;42.680;23.324;2023-07-22T02:49:31;95141.22;;;25.20;77.19
13027;BME280;6580;42.680;23.324;2023-07-22T02:52:16;95151.88;;;25.22;77.97
13027;BME280;6580;42.680;23.324;2023-07-22T02:55:07;95146.00;;;25.13;77.86
13027;BME280;6580;42.680;23.324;2023-07-22T02:57:54;95147.13;;;25.01;80.01
13027;BME280;6580;42.680;23.324;2023-07-22T03:00:40;95146.63;;;25.04;78.93
13027;BME280;6580;42.680;23.324;2023-07-22T03:03:28;95153.66;;;24.83;79.37
13027;BME280;6580;42.680;23.324;2023-07-22T03:06:14;95159.03;;;24.78;80.66
13027;BME280;6580;42.680;23.324;2023-07-22T03:08:59;95144.09;;;24.97;78.02
13027;BME280;6580;42.680;23.324;2023-07-22T03:11:45;95149.41;;;24.76;78.78
13027;BME280;6580;42.680;23.324;2023-07-22T03:14:30;95151.66;;;24.63;79.73
13027;BME280;6580;42.680;23.324;2023-07-22T03:17:22;95150.16;;;24.71;79.31
13027;BME280;6580;42.680;23.324;2023-07-22T03:20:10;95152.16;;;24.60;79.93
13027;BME280;6580;42.680;23.324;2023-07-22T03:22:58;95160.69;;;24.52;80.38
13027;BME280;6580;42.680;23.324;2023-07-22T03:25:43;95152.88;;;24.55;80.43
13027;BME280;6580;42.680;23.324;2023-07-22T03:28:30;95158.22;;;24.50;80.35
13027;BME280;6580;42.680;23.324;2023-07-22T03:31:15;95168.50;;;24.76;79.00
13027;BME280;6580;42.680;23.324;2023-07-22T03:34:02;95172.72;;;24.67;79.36
13027;BME280;6580;42.680;23.324;2023-07-22T03:36:48;95164.22;;;24.64;80.61
13027;BME280;6580;42.680;23.324;2023-07-22T03:39:34;95183.06;;;24.54;81.07
13027;BME280;6580;42.680;23.324;2023-07-22T03:42:19;95181.19;;;24.54;81.12
13027;BME280;6580;42.680;23.324;2023-07-22T03:45:07;95188.13;;;24.62;80.45
13027;BME280;6580;42.680;23.324;2023-07-22T03:47:57;95188.78;;;24.68;80.09
13027;BME280;6580;42.680;23.324;2023-07-22T03:50:43;95192.16;;;24.59;80.83
13027;BME280;6580;42.680;23.324;2023-07-22T03:53:29;95186.31;;;24.67;82.31
13027;BME280;6580;42.680;23.324;2023-07-22T03:56:15;95194.41;;;24.62;82.17
13027;BME280;6580;42.680;23.324;2023-07-22T03:59:00;95201.81;;;24.67;81.13
13027;BME280;6580;42.680;23.324;2023-07-22T04:01:46;95197.72;;;24.64;80.26
13027;BME280;6580;42.680;23.324;2023-07-22T04:04:31;95207.34;;;24.99;78.14
13027;BME280;6580;42.680;23.324;2023-07-22T04:07:17;95205.88;;;24.92;78.28
13027;BME280;6580;42.680;23.324;2023-07-22T04:10:05;95198.41;;;24.87;79.70
13027;BME280;6580;42.680;23.324;2023-07-22T04:12:51;95203.63;;;25.05;77.51
13027;BME280;6580;42.680;23.324;2023-07-22T04:15:36;95205.34;;;24.95;79.62
13027;BME280;6580;42.680;23.324;2023-07-22T04:18:22;95202.28;;;24.91;79.68
13027;BME280;6580;42.680;23.324;2023-07-22T04:21:08;95203.28;;;25.02;79.01
13027;BME280;6580;42.680;23.324;2023-07-22T04:23:53;95209.34;;;25.04;78.33
13027;BME280;6580;42.680;23.324;2023-07-22T04:26:43;95210.50;;;25.08;78.46
13027;BME280;6580;42.680;23.324;2023-07-22T04:29:29;95206.72;;;25.25;77.07
13027;BME280;6580;42.680;23.324;2023-07-22T04:32:15;95221.69;;;25.23;76.95
13027;BME280;6580;42.680;23.324;2023-07-22T04:35:00;95228.22;;;25.22;77.78
13027;BME280;6580;42.680;23.324;2023-07-22T04:37:47;95223.28;;;25.07;79.31
13027;BME280;6580;42.680;23.324;2023-07-22T04:40:33;95229.03;;;25.22;78.77
13027;BME280;6580;42.680;23.324;2023-07-22T04:43:19;95225.06;;;25.30;77.11
13027;BME280;6580;42.680;23.324;2023-07-22T04:46:05;95216.97;;;25.35;76.75
13027;BME280;6580;42.680;23.324;2023-07-22T04:48:53;95223.81;;;25.54;75.80
13027;BME280;6580;42.680;23.324;2023-07-22T04:51:38;95219.78;;;25.40;77.02
13027;BME280;6580;42.680;23.324;2023-07-22T04:54:24;95219.91;;;25.66;76.27
13027;BME280;6580;42.680;23.324;2023-07-22T04:57:12;95214.19;;;25.68;76.39
13027;BME280;6580;42.680;23.324;2023-07-22T04:59:59;95218.66;;;25.73;76.05
13027;BME280;6580;42.680;23.324;2023-07-22T05:02:47;95221.31;;;25.69;76.20
13027;BME280;6580;42.680;23.324;2023-07-22T05:05:32;95231.50;;;25.73;77.74
13027;BME280;6580;42.680;23.324;2023-07-22T05:08:18;95251.59;;;25.67;76.95
13027;BME280;6580;42.680;23.324;2023-07-22T05:11:03;95250.28;;;26.07;75.60
13027;BME280;6580;42.680;23.324;2023-07-22T05:13:49;95239.03;;;26.63;72.04
13027;BME280;6580;42.680;23.324;2023-07-22T05:16:36;95229.22;;;27.46;68.53
13027;BME280;6580;42.680;23.324;2023-07-22T05:19:21;95227.34;;;28.24;64.35
13027;BME280;6580;42.680;23.324;2023-07-22T05:22:08;95233.16;;;28.38;63.03
13027;BME280;6580;42.680;23.324;2023-07-22T05:24:53;95225.19;;;29.07;60.76
13027;BME280;6580;42.680;23.324;2023-07-22T05:27:39;95234.88;;;29.75;56.96
13027;BME280;6580;42.680;23.324;2023-07-22T05:30:25;95224.44;;;29.77;56.53
13027;BME280;6580;42.680;23.324;2023-07-22T05:33:14;95232.94;;;29.80;55.43
13027;BME280;6580;42.680;23.324;2023-07-22T05:36:01;95233.19;;;30.08;54.50
13027;BME280;6580;42.680;23.324;2023-07-22T05:38:47;95238.69;;;30.08;54.11
13027;BME280;6580;42.680;23.324;2023-07-22T05:41:32;95235.34;;;30.36;53.77
13027;BME280;6580;42.680;23.324;2023-07-22T05:44:18;95236.78;;;30.92;51.36
13027;BME280;6580;42.680;23.324;2023-07-22T05:47:04;95235.72;;;30.88;50.77
13027;BME280;6580;42.680;23.324;2023-07-22T05:49:50;95229.59;;;31.06;50.46
13027;BME280;6580;42.680;23.324;2023-07-22T05:52:36;95227.28;;;31.23;49.97
13027;BME280;6580;42.680;23.324;2023-07-22T05:55:22;95232.59;;;31.86;47.81
13027;BME280;6580;42.680;23.324;2023-07-22T05:58:15;95225.94;;;31.54;48.60
13027;BME280;6580;42.680;23.324;2023-07-22T06:01:01;95216.13;;;31.76;48.44
13027;BME280;6580;42.680;23.324;2023-07-22T06:03:47;95234.94;;;32.54;46.55
13027;BME280;6580;42.680;23.324;2023-07-22T06:06:33;95237.66;;;32.83;45.47
13027;BME280;6580;42.680;23.324;2023-07-22T06:09:19;95245.72;;;33.21;44.32
13027;BME280;6580;42.680;23.324;2023-07-22T06:12:08;95251.09;;;33.31;44.05
13027;BME280;6580;42.680;23.324;2023-07-22T06:14:53;95239.69;;;32.96;44.25
13027;BME280;6580;42.680;23.324;2023-07-22T06:17:39;95259.16;;;33.28;44.33
13027;BME280;6580;42.680;23.324;2023-07-22T06:20:25;95267.63;;;34.05;43.07
13027;BME280;6580;42.680;23.324;2023-07-22T06:23:11;95255.66;;;34.28;42.21
13027;BME280;6580;42.680;23.324;2023-07-22T06:25:57;95256.25;;;34.25;41.84
13027;BME280;6580;42.680;23.324;2023-07-22T06:28:42;95271.03;;;34.65;41.37
13027;BME280;6580;42.680;23.324;2023-07-22T06:31:28;95263.84;;;35.18;40.46
13027;BME280;6580;42.680;23.324;2023-07-22T06:34:14;95261.84;;;35.10;40.02
13027;BME280;6580;42.680;23.324;2023-07-22T06:36:59;95268.09;;;35.16;40.15
13027;BME280;6580;42.680;23.324;2023-07-22T06:39:46;95280.25;;;34.88;40.06
13027;BME280;6580;42.680;23.324;2023-07-22T06:42:32;95276.63;;;34.47;40.90
13027;BME280;6580;42.680;23.324;2023-07-22T06:45:17;95261.25;;;35.35;39.81
13027;BME280;6580;42.680;23.324;2023-07-22T06:48:02;95247.47;;;36.36;38.01
13027;BME280;6580;42.680;23.324;2023-07-22T06:50:50;95263.81;;;36.38;38.16
13027;BME280;6580;42.680;23.324;2023-07-22T06:53:36;95269.56;;;36.71;37.51
13027;BME280;6580;42.680;23.324;2023-07-22T06:56:23;95263.53;;;37.00;36.62
13027;BME280;6580;42.680;23.324;2023-07-22T06:59:10;95260.78;;;37.17;36.53
13027;BME280;6580;42.680;23.324;2023-07-22T07:01:55;95247.63;;;36.92;36.87
13027;BME280;6580;42.680;23.324;2023-07-22T07:04:41;95240.16;;;37.65;36.08
13027;BME280;6580;42.680;23.324;2023-07-22T07:07:26;95249.69;;;37.25;36.53
13027;BME280;6580;42.680;23.324;2023-07-22T07:10:12;95249.72;;;37.34;36.86
13027;BME280;6580;42.680;23.324;2023-07-22T07:12:59;95247.22;;;38.30;35.23
13027;BME280;6580;42.680;23.324;2023-07-22T07:15:46;95246.88;;;38.15;35.14
13027;BME280;6580;42.680;23.324;2023-07-22T07:18:32;95240.16;;;38.33;35.22
13027;BME280;6580;42.680;23.324;2023-07-22T07:21:19;95244.09;;;37.98;34.69
13027;BME280;6580;42.680;23.324;2023-07-22T07:24:05;95242.78;;;37.87;34.74
13027;BME280;6580;42.680;23.324;2023-07-22T07:26:50;95247.44;;;38.71;33.99
13027;BME280;6580;42.680;23.324;2023-07-22T07:29:37;95235.31;;;37.32;35.36
13027;BME280;6580;42.680;23.324;2023-07-22T07:32:23;95232.94;;;37.39;35.47
13027;BME280;6580;42.680;23.324;2023-07-22T07:35:08;95234.22;;;37.41;35.85
13027;BME280;6580;42.680;23.324;2023-07-22T07:37:54;95239.03;;;37.10;36.06
13027;BME280;6580;42.680;23.324;2023-07-22T07:40:40;95229.56;;;37.84;35.58
13027;BME280;6580;42.680;23.324;2023-07-22T07:43:26;95222.47;;;37.53;35.52
13027;BME280;6580;42.680;23.324;2023-07-22T07:46:16;95230.81;;;37.53;35.22
13027;BME280;6580;42.680;23.324;2023-07-22T07:49:02;95218.53;;;38.21;34.03
13027;BME280;6580;42.680;23.324;2023-07-22T07:51:48;95224.53;;;39.03;33.25
13027;BME280;6580;42.680;23.324;2023-07-22T07:54:33;95206.53;;;39.58;32.57
13027;BME280;6580;42.680;23.324;2023-07-22T07:57:19;95223.97;;;38.80;33.46
13027;BME280;6580;42.680;23.324;2023-07-22T08:00:05;95221.22;;;38.64;33.30
13027;BME280;6580;42.680;23.324;2023-07-22T08:02:54;95216.56;;;37.46;35.27
13027;BME280;6580;42.680;23.324;2023-07-22T08:05:40;95219.41;;;39.05;32.91
13027;BME280;6580;42.680;23.324;2023-07-22T08:08:25;95218.09;;;39.69;31.89
13027;BME280;6580;42.680;23.324;2023-07-22T08:11:13;95210.06;;;39.87;31.65
13027;BME280;6580;42.680;23.324;2023-07-22T08:13:58;95195.84;;;39.60;31.75
13027;BME280;6580;42.680;23.324;2023-07-22T08:16:44;95210.91;;;38.73;32.88
13027;BME280;6580;42.680;23.324;2023-07-22T08:19:31;95206.03;;;39.56;32.42
13027;BME280;6580;42.680;23.324;2023-07-22T08:22:16;95207.19;;;40.37;31.20
13027;BME280;6580;42.680;23.324;2023-07-22T08:25:02;95208.09;;;40.08;31.30
13027;BME280;6580;42.680;23.324;2023-07-22T08:27:47;95205.38;;;40.32;30.31
13027;BME280;6580;42.680;23.324;2023-07-22T08:30:33;95206.09;;;40.74;30.72
13027;BME280;6580;42.680;23.324;2023-07-22T08:33:19;95199.19;;;40.27;30.78
13027;BME280;6580;42.680;23.324;2023-07-22T08:36:06;95201.50;;;41.01;29.70
13027;BME280;6580;42.680;23.324;2023-07-22T08:38:51;95184.16;;;40.40;30.70
13027;BME280;6580;42.680;23.324;2023-07-22T08:41:37;95178.84;;;40.71;29.92
13027;BME280;6580;42.680;23.324;2023-07-22T08:44:25;95165.50;;;41.87;28.88
13027;BME280;6580;42.680;23.324;2023-07-22T08:47:16;95176.63;;;41.72;28.18
13027;BME280;6580;42.680;23.324;2023-07-22T08:50:02;95158.34;;;41.50;28.64
13027;BME280;6580;42.680;23.324;2023-07-22T08:52:51;95154.13;;;41.68;28.36
13027;BME280;6580;42.680;23.324;2023-07-22T08:55:36;95145.72;;;42.35;27.53
13027;BME280;6580;42.680;23.324;2023-07-22T08:58:24;95153.34;;;42.22;27.46
13027;BME280;6580;42.680;23.324;2023-07-22T09:01:10;95145.91;;;42.14;27.88
13027;BME280;6580;42.680;23.324;2023-07-22T09:03:55;95155.66;;;42.05;27.22
13027;BME280;6580;42.680;23.324;2023-07-22T09:06:42;95150.25;;;42.12;26.97
13027;BME280;6580;42.680;23.324;2023-07-22T09:09:29;95145.19;;;42.45;26.77
13027;BME280;6580;42.680;23.324;2023-07-22T09:12:17;95137.69;;;42.06;27.25
13027;BME280;6580;42.680;23.324;2023-07-22T09:15:03;95153.34;;;40.60;28.85
13027;BME280;6580;42.680;23.324;2023-07-22T09:17:49;95145.69;;;41.29;27.95
13027;BME280;6580;42.680;23.324;2023-07-22T09:20:34;95148.75;;;41.75;27.92
13027;BME280;6580;42.680;23.324;2023-07-22T09:23:31;95142.00;;;42.04;27.58
13027;BME280;6580;42.680;23.324;2023-07-22T09:26:18;95132.97;;;41.83;27.34
13027;BME280;6580;42.680;23.324;2023-07-22T09:29:04;95127.78;;;41.97;27.52
13027;BME280;6580;42.680;23.324;2023-07-22T09:31:51;95124.78;;;43.06;26.42
13027;BME280;6580;42.680;23.324;2023-07-22T09:34:37;95134.53;;;41.96;26.87
13027;BME280;6580;42.680;23.324;2023-07-22T09:37:22;95123.22;;;41.25;28.05
13027;BME280;6580;42.680;23.324;2023-07-22T09:40:17;95132.50;;;42.20;27.17
13027;BME280;6580;42.680;23.324;2023-07-22T09:43:05;95111.25;;;42.93;25.86
13027;BME280;6580;42.680;23.324;2023-07-22T09:45:51;95109.22;;;43.58;24.74
13027;BME280;6580;42.680;23.324;2023-07-22T09:48:41;95104.19;;;43.86;24.87
13027;BME280;6580;42.680;23.324;2023-07-22T09:51:33;95103.81;;;44.44;24.06
13027;BME280;6580;42.680;23.324;2023-07-22T09:54:19;95099.53;;;44.73;23.54
13027;BME280;6580;42.680;23.324;2023-07-22T09:57:05;95094.63;;;44.47;23.09
13027;BME280;6580;42.680;23.324;2023-07-22T09:59:53;95093.56;;;43.57;24.31
13027;BME280;6580;42.680;23.324;2023-07-22T10:02:40;95090.59;;;44.07;24.46
13027;BME280;6580;42.680;23.324;2023-07-22T10:05:27;95085.28;;;44.21;23.83
13027;BME280;6580;42.680;23.324;2023-07-22T10:08:14;95085.16;;;43.95;24.32
13027;BME280;6580;42.680;23.324;2023-07-22T10:11:05;95084.75;;;43.78;24.85
13027;BME280;6580;42.680;23.324;2023-07-22T10:13:52;95080.06;;;44.01;23.55
13027;BME280;6580;42.680;23.324;2023-07-22T10:16:39;95084.00;;;44.37;22.94
13027;BME280;6580;42.680;23.324;2023-07-22T10:19:26;95066.75;;;45.06;22.49
13027;BME280;6580;42.680;23.324;2023-07-22T10:22:11;95075.56;;;45.05;22.46
13027;BME280;6580;42.680;23.324;2023-07-22T10:24:57;95080.34;;;44.78;22.67
13027;BME280;6580;42.680;23.324;2023-07-22T10:27:44;95073.19;;;45.07;22.56
13027;BME280;6580;42.680;23.324;2023-07-22T10:30:29;95082.09;;;45.64;21.91
13027;BME280;6580;42.680;23.324;2023-07-22T10:33:16;95081.53;;;44.77;22.89
13027;BME280;6580;42.680;23.324;2023-07-22T10:36:04;95072.81;;;44.41;23.06
13027;BME280;6580;42.680;23.324;2023-07-22T10:38:56;95061.34;;;43.89;22.82
13027;BME280;6580;42.680;23.324;2023-07-22T10:41:41;95069.00;;;44.52;22.40
13027;BME280;6580;42.680;23.324;2023-07-22T10:44:27;95055.38;;;43.18;23.10
13027;BME280;6580;42.680;23.324;2023-07-22T10:47:31;95068.28;;;45.55;21.20
13027;BME280;6580;42.680;23.324;2023-07-22T10:50:19;95065.56;;;45.59;20.54
13027;BME280;6580;42.680;23.324;2023-07-22T10:53:04;95060.69;;;45.56;20.08
13027;BME280;6580;42.680;23.324;2023-07-22T10:56:07;95064.16;;;44.72;20.90
13027;BME280;6580;42.680;23.324;2023-07-22T10:58:57;95050.81;;;45.43;21.17
13027;BME280;6580;42.680;23.324;2023-07-22T11:01:44;95054.22;;;45.55;20.78
13027;BME280;6580;42.680;23.324;2023-07-22T11:04:29;95062.41;;;46.69;20.21
13027;BME280;6580;42.680;23.324;2023-07-22T11:07:31;95038.88;;;44.72;20.57
13027;BME280;6580;42.680;23.324;2023-07-22T11:10:18;95044.13;;;45.51;20.47
13027;BME280;6580;42.680;23.324;2023-07-22T11:13:03;95028.84;;;44.52;21.16
13027;BME280;6580;42.680;23.324;2023-07-22T11:15:49;95040.31;;;45.11;20.84
13027;BME280;6580;42.680;23.324;2023-07-22T11:18:38;95038.09;;;45.52;20.20
13027;BME280;6580;42.680;23.324;2023-07-22T11:21:23;95037.94;;;45.71;20.67
13027;BME280;6580;42.680;23.324;2023-07-22T11:24:10;95036.41;;;46.10;19.84
13027;BME280;6580;42.680;23.324;2023-07-22T11:26:56;95027.44;;;45.68;19.90
13027;BME280;6580;42.680;23.324;2023-07-22T11:29:42;95034.84;;;46.49;19.72
13027;BME280;6580;42.680;23.324;2023-07-22T11:32:28;95031.06;;;46.02;19.77
13027;BME280;6580;42.680;23.324;2023-07-22T11:35:15;95017.38;;;46.00;19.63
13027;BME280;6580;42.680;23.324;2023-07-22T11:38:03;95013.53;;;46.15;20.30
13027;BME280;6580;42.680;23.324;2023-07-22T11:40:50;95015.38;;;45.68;19.42
13027;BME280;6580;42.680;23.324;2023-07-22T11:43:37;95019.72;;;42.85;22.16
13027;BME280;6580;42.680;23.324;2023-07-22T11:46:22;95004.91;;;43.37;21.80
13027;BME280;6580;42.680;23.324;2023-07-22T11:49:07;95006.00;;;44.31;21.27
13027;BME280;6580;42.680;23.324;2023-07-22T11:51:57;95001.53;;;44.52;20.94
13027;BME280;6580;42.680;23.324;2023-07-22T11:54:44;95002.91;;;45.10;20.36
13027;BME280;6580;42.680;23.324;2023-07-22T11:57:31;95006.53;;;45.69;20.28
13027;BME280;6580;42.680;23.324;2023-07-22T12:00:18;95007.41;;;43.80;21.94
13027;BME280;6580;42.680;23.324;2023-07-22T12:03:06;95005.06;;;43.25;22.23
13027;BME280;6580;42.680;23.324;2023-07-22T12:05:52;94997.63;;;44.34;21.32
13027;BME280;6580;42.680;23.324;2023-07-22T12:08:43;95010.38;;;44.51;21.30
13027;BME280;6580;42.680;23.324;2023-07-22T12:11:32;95001.00;;;44.66;21.05
13027;BME280;6580;42.680;23.324;2023-07-22T12:14:19;94992.84;;;44.35;21.78
13027;BME280;6580;42.680;23.324;2023-07-22T12:17:08;94984.00;;;44.36;21.59
13027;BME280;6580;42.680;23.324;2023-07-22T12:19:53;94983.44;;;44.98;21.32
13027;BME280;6580;42.680;23.324;2023-07-22T12:22:39;94984.34;;;43.90;22.23
13027;BME280;6580;42.680;23.324;2023-07-22T12:25:24;94976.41;;;42.82;23.05
13027;BME280;6580;42.680;23.324;2023-07-22T12:28:10;94986.72;;;42.63;23.67
13027;BME280;6580;42.680;23.324;2023-07-22T12:30:56;94978.34;;;43.31;22.91
13027;BME280;6580;42.680;23.324;2023-07-22T12:33:42;94980.59;;;42.42;23.59
13027;BME280;6580;42.680;23.324;2023-07-22T12:36:28;94983.25;;;41.61;24.79
13027;BME280;6580;42.680;23.324;2023-07-22T12:39:13;94985.16;;;41.45;25.03
13027;BME280;6580;42.680;23.324;2023-07-22T12:41:58;94975.13;;;41.72;24.60
13027;BME280;6580;42.680;23.324;2023-07-22T12:44:43;94968.59;;;42.10;24.38
13027;BME280;6580;42.680;23.324;2023-07-22T12:47:31;94968.94;;;42.24;23.90
13027;BME280;6580;42.680;23.324;2023-07-22T12:50:16;94972.19;;;41.25;25.32
13027;BME280;6580;42.680;23.324;2023-07-22T12:53:02;94964.56;;;41.81;24.52
13027;BME280;6580;42.680;23.324;2023-07-22T12:55:47;94965.28;;;41.35;24.52
13027;BME280;6580;42.680;23.324;2023-07-22T12:58:32;94965.72;;;40.97;25.28
13027;BME280;6580;42.680;23.324;2023-07-22T13:01:18;94962.19;;;41.24;24.83
13027;BME280;6580;42.680;23.324;2023-07-22T13:04:05;94961.78;;;40.98;24.68
13027;BME280;6580;42.680;23.324;2023-07-22T13:06:50;94956.50;;;40.58;24.86
13027;BME280;6580;42.680;23.324;2023-07-22T13:09:44;94948.84;;;39.95;25.51
13027;BME280;6580;42.680;23.324;2023-07-22T13:12:40;94946.34;;;38.84;26.79
13027;BME280;6580;42.680;23.324;2023-07-22T13:15:26;94944.22;;;39.22;26.66
13027;BME280;6580;42.680;23.324;2023-07-22T13:18:11;94943.06;;;39.56;26.41
13027;BME280;6580;42.680;23.324;2023-07-22T13:20:59;94940.59;;;39.01;26.73
13027;BME280;6580;42.680;23.324;2023-07-22T13:23:44;94933.31;;;39.29;26.80
13027;BME280;6580;42.680;23.324;2023-07-22T13:26:30;94935.66;;;39.83;26.40
13027;BME280;6580;42.680;23.324;2023-07-22T13:29:15;94932.97;;;39.63;26.72
13027;BME280;6580;42.680;23.324;2023-07-22T13:32:01;94920.59;;;38.67;27.51
13027;BME280;6580;42.680;23.324;2023-07-22T13:34:48;94927.47;;;38.70;27.77
13027;BME280;6580;42.680;23.324;2023-07-22T13:37:36;94931.44;;;39.21;27.13
13027;BME280;6580;42.680;23.324;2023-07-22T13:40:21;94922.06;;;39.38;26.92
13027;BME280;6580;42.680;23.324;2023-07-22T13:43:07;94916.31;;;39.10;27.12
13027;BME280;6580;42.680;23.324;2023-07-22T13:45:53;94926.13;;;38.47;27.45
13027;BME280;6580;42.680;23.324;2023-07-22T13:48:38;94917.81;;;38.67;27.51
13027;BME280;6580;42.680;23.324;2023-07-22T13:51:24;94925.97;;;38.92;26.92
13027;BME280;6580;42.680;23.324;2023-07-22T13:54:10;94913.22;;;38.63;26.95
13027;BME280;6580;42.680;23.324;2023-07-22T13:56:56;94908.75;;;38.50;27.16
13027;BME280;6580;42.680;23.324;2023-07-22T13:59:41;94911.66;;;38.33;27.54
13027;BME280;6580;42.680;23.324;2023-07-22T14:02:27;94902.03;;;38.30;27.61
13027;BME280;6580;42.680;23.324;2023-07-22T14:05:12;94897.41;;;38.34;27.27
13027;BME280;6580;42.680;23.324;2023-07-22T14:07:58;94906.50;;;38.14;27.83
13027;BME280;6580;42.680;23.324;2023-07-22T14:10:45;94908.75;;;38.29;27.87
13027;BME280;6580;42.680;23.324;2023-07-22T14:13:30;94911.09;;;38.19;27.75
13027;BME280;6580;42.680;23.324;2023-07-22T14:16:15;94911.88;;;38.19;27.79
13027;BME280;6580;42.680;23.324;2023-07-22T14:19:01;94910.91;;;37.95;27.50
13027;BME280;6580;42.680;23.324;2023-07-22T14:21:46;94912.66;;;37.99;27.61
13027;BME280;6580;42.680;23.324;2023-07-22T14:24:31;94917.13;;;38.29;27.96
13027;BME280;6580;42.680;23.324;2023-07-22T14:27:18;94929.19;;;38.33;28.32
13027;BME280;6580;42.680;23.324;2023-07-22T14:30:05;94924.69;;;38.41;27.00
13027;BME280;6580;42.680;23.324;2023-07-22T14:32:50;94928.47;;;38.16;27.56
13027;BME280;6580;42.680;23.324;2023-07-22T14:35:35;94934.78;;;38.54;27.49
13027;BME280;6580;42.680;23.324;2023-07-22T14:38:21;94939.50;;;38.33;27.29
13027;BME280;6580;42.680;23.324;2023-07-22T14:41:07;94922.69;;;38.21;27.21